createdAt,value
2019-02-27T00:00:11.441Z,23.93
2019-02-27T00:02:40.365Z,22.37
2019-02-27T00:05:09.045Z,34.70
2019-02-27T00:07:37.493Z,28.90
2019-02-27T00:10:07.251Z,25.23
2019-02-27T00:12:35.708Z,24.63
2019-02-27T00:15:04.936Z,24.50
2019-02-27T00:17:34.499Z,22.73
2019-02-27T00:20:05.011Z,21.50
2019-02-27T00:22:33.816Z,17.87
2019-02-27T00:25:03.431Z,18.93
2019-02-27T00:27:32.365Z,20.03
2019-02-27T00:30:04.627Z,17.37
2019-02-27T00:32:31.018Z,26.23
2019-02-27T00:34:59.321Z,22.77
2019-02-27T00:37:27.727Z,18.03
2019-02-27T00:39:56.170Z,20.47
2019-02-27T00:42:33.267Z,17.43
2019-02-27T00:44:54.871Z,20.33
2019-02-27T00:47:23.270Z,14.10
2019-02-27T00:49:51.626Z,17.93
2019-02-27T00:52:20.111Z,25.57
2019-02-27T00:54:50.360Z,16.63
2019-02-27T00:57:20.889Z,18.97
2019-02-27T00:59:48.886Z,16.20
2019-02-27T01:02:19.911Z,18.80
2019-02-27T01:04:47.347Z,15.53
2019-02-27T01:07:20.240Z,16.03
2019-02-27T01:09:47.142Z,13.10
2019-02-27T01:12:15.448Z,15.93
2019-02-27T01:14:43.752Z,16.47
2019-02-27T01:17:12.109Z,17.50
2019-02-27T01:19:42.697Z,17.67
2019-02-27T01:22:10.721Z,17.37
2019-02-27T01:24:39.063Z,24.47
2019-02-27T01:27:07.352Z,17.27
2019-02-27T01:29:36.019Z,20.67
2019-02-27T01:32:04.385Z,21.60
2019-02-27T01:34:32.831Z,27.33
2019-02-27T01:37:01.181Z,19.00
2019-02-27T01:39:29.579Z,21.93
2019-02-27T01:41:58.535Z,18.33
2019-02-27T01:44:27.124Z,19.70
2019-02-27T01:46:55.483Z,17.80
2019-02-27T01:49:24.959Z,17.80
2019-02-27T01:51:53.579Z,19.60
2019-02-27T01:54:21.911Z,21.33
2019-02-27T01:56:50.189Z,22.40
2019-02-27T01:59:18.777Z,26.43
2019-02-27T02:01:47.151Z,26.20
2019-02-27T02:04:20.001Z,20.30
2019-02-27T02:06:45.559Z,22.17
2019-02-27T02:09:30.804Z,22.23
2019-02-27T02:12:01.112Z,22.30
2019-02-27T02:14:38.351Z,20.17
2019-02-27T02:17:09.956Z,23.87
2019-02-27T02:19:56.741Z,19.47
2019-02-27T02:22:41.305Z,21.07
2019-02-27T02:25:21.729Z,19.70
2019-02-27T02:28:19.160Z,18.23
2019-02-27T02:31:04.942Z,18.57
2019-02-27T02:33:36.362Z,26.80
2019-02-27T02:36:32.948Z,19.03
2019-02-27T02:39:24.214Z,23.80
2019-02-27T02:42:13.770Z,18.87
2019-02-27T02:45:04.601Z,17.40
2019-02-27T02:48:04.740Z,18.33
2019-02-27T02:50:54.270Z,16.33
2019-02-27T02:54:02.060Z,20.57
2019-02-27T02:56:36.205Z,16.00
2019-02-27T02:59:36.744Z,16.60
2019-02-27T03:02:08.284Z,20.63
2019-02-27T03:04:48.243Z,16.93
2019-02-27T03:07:22.436Z,20.20
2019-02-27T03:10:10.795Z,18.03
2019-02-27T03:13:07.120Z,22.83
2019-02-27T03:15:52.625Z,21.90
2019-02-27T03:18:45.537Z,20.17
2019-02-27T03:21:35.206Z,20.10
2019-02-27T03:24:27.943Z,23.73
2019-02-27T03:27:02.600Z,22.17
2019-02-27T03:30:05.911Z,21.47
2019-02-27T03:32:49.198Z,24.27
2019-02-27T03:35:42.145Z,23.90
2019-02-27T03:38:36.360Z,18.80
2019-02-27T03:41:23.640Z,22.10
2019-02-27T03:44:10.397Z,28.03
2019-02-27T03:46:51.040Z,21.23
2019-02-27T03:49:55.922Z,18.93
2019-02-27T03:52:37.347Z,21.27
2019-02-27T03:55:20.795Z,26.53
2019-02-27T03:58:04.705Z,22.63
2019-02-27T04:00:44.199Z,19.33
2019-02-27T04:03:44.995Z,18.83
2019-02-27T04:06:25.633Z,19.20
2019-02-27T04:08:57.773Z,21.10
2019-02-27T04:11:26.326Z,26.43
2019-02-27T04:13:54.799Z,20.97
2019-02-27T04:16:28.866Z,25.90
2019-02-27T04:18:53.150Z,22.77
2019-02-27T04:21:25.027Z,27.53
2019-02-27T04:23:51.842Z,22.10
2019-02-27T04:26:20.343Z,24.30
2019-02-27T04:28:48.645Z,24.37
2019-02-27T04:31:16.971Z,23.97
2019-02-27T04:33:45.503Z,25.27
2019-02-27T04:36:14.068Z,25.07
2019-02-27T04:38:42.796Z,26.87
2019-02-27T04:41:11.239Z,35.57
2019-02-27T04:43:39.607Z,50.00
2019-02-27T04:46:07.900Z,34.93
2019-02-27T04:48:36.227Z,29.03
2019-02-27T04:51:04.616Z,30.33
2019-02-27T04:53:32.985Z,26.57
2019-02-27T04:56:01.367Z,35.53
2019-02-27T04:58:31.299Z,23.50
2019-02-27T05:01:01.059Z,26.03
2019-02-27T05:03:29.396Z,23.50
2019-02-27T05:05:59.464Z,22.57
2019-02-27T05:08:27.835Z,25.83
2019-02-27T05:10:56.136Z,31.13
2019-02-27T05:13:24.457Z,24.67
2019-02-27T05:15:52.832Z,22.07
2019-02-27T05:18:21.189Z,18.67
2019-02-27T05:20:49.462Z,20.47
2019-02-27T05:23:19.539Z,23.80
2019-02-27T05:25:47.923Z,25.50
2019-02-27T05:28:16.259Z,29.10
2019-02-27T05:30:45.233Z,28.23
2019-02-27T05:33:14.263Z,21.77
2019-02-27T05:35:42.646Z,23.80
2019-02-27T05:38:11.114Z,22.27
2019-02-27T05:40:39.479Z,25.50
2019-02-27T05:43:07.810Z,26.90
2019-02-27T05:45:36.134Z,24.43
2019-02-27T05:48:04.478Z,18.83
2019-02-27T05:50:34.340Z,17.37
2019-02-27T05:53:02.917Z,23.57
2019-02-27T05:55:31.406Z,22.50
2019-02-27T05:57:59.767Z,22.83
2019-02-27T06:00:28.169Z,19.87
2019-02-27T06:02:56.940Z,30.60
2019-02-27T06:05:25.479Z,22.83
2019-02-27T06:07:53.844Z,24.77
2019-02-27T06:10:23.614Z,23.70
2019-02-27T06:12:52.028Z,31.13
2019-02-27T06:15:20.468Z,30.33
2019-02-27T06:17:49.730Z,24.07
2019-02-27T06:20:18.171Z,27.13
2019-02-27T06:22:46.546Z,24.17
2019-02-27T06:25:21.912Z,25.83
2019-02-27T06:27:47.597Z,21.00
2019-02-27T06:30:18.641Z,22.70
2019-02-27T06:32:47.360Z,23.23
2019-02-27T06:35:16.121Z,24.10
2019-02-27T06:37:44.666Z,24.87
2019-02-27T06:40:18.385Z,33.33
2019-02-27T06:42:47.124Z,25.50
2019-02-27T06:45:18.500Z,25.10
2019-02-27T06:47:46.798Z,25.63
2019-02-27T06:50:16.273Z,28.07
2019-02-27T06:52:44.755Z,32.80
2019-02-27T06:55:14.583Z,26.53
2019-02-27T06:57:42.973Z,25.03
2019-02-27T07:00:16.569Z,21.67
2019-02-27T07:02:44.975Z,23.53
2019-02-27T07:05:14.099Z,23.80
2019-02-27T07:07:42.623Z,21.53
2019-02-27T07:10:19.409Z,22.23
2019-02-27T07:12:45.909Z,24.00
2019-02-27T07:15:21.602Z,19.80
2019-02-27T07:17:50.012Z,26.07
2019-02-27T07:20:18.455Z,33.23
2019-02-27T07:22:47.087Z,26.27
2019-02-27T07:25:17.666Z,20.33
2019-02-27T07:27:46.094Z,28.83
2019-02-27T07:30:18.511Z,24.87
2019-02-27T07:32:46.946Z,26.07
2019-02-27T07:35:16.479Z,30.03
2019-02-27T07:37:48.006Z,26.70
2019-02-27T07:40:16.990Z,21.50
2019-02-27T07:42:45.902Z,24.60
2019-02-27T07:45:22.823Z,35.37
2019-02-27T07:47:51.368Z,26.00
2019-02-27T07:50:20.734Z,30.47
2019-02-27T07:52:49.130Z,22.97
2019-02-27T07:55:21.797Z,19.50
2019-02-27T07:57:48.326Z,20.67
2019-02-27T08:00:19.776Z,22.10
2019-02-27T08:02:48.085Z,21.93
2019-02-27T08:05:16.505Z,21.27
2019-02-27T08:07:48.811Z,19.50
2019-02-27T08:10:22.327Z,19.17
2019-02-27T08:12:55.598Z,18.20
2019-02-27T08:15:20.986Z,23.60
2019-02-27T08:17:49.415Z,22.83
2019-02-27T08:20:21.080Z,16.33
2019-02-27T08:22:49.717Z,15.67
2019-02-27T08:25:19.748Z,23.80
2019-02-27T08:27:48.140Z,19.17
2019-02-27T08:30:22.548Z,19.47
2019-02-27T08:32:50.930Z,17.70
2019-02-27T08:35:19.615Z,19.47
2019-02-27T08:37:47.918Z,15.83
2019-02-27T08:40:16.281Z,18.27
2019-02-27T08:42:44.665Z,16.10
2019-02-27T08:45:20.010Z,17.37
2019-02-27T08:47:47.986Z,21.00
2019-02-27T08:50:21.462Z,19.77
2019-02-27T08:52:51.540Z,17.80
2019-02-27T08:55:22.548Z,19.47
2019-02-27T08:57:55.796Z,21.50
2019-02-27T09:00:26.109Z,17.20
2019-02-27T09:02:55.727Z,20.27
2019-02-27T09:05:24.251Z,14.33
2019-02-27T09:07:52.664Z,18.83
2019-02-27T09:10:23.177Z,16.33
2019-02-27T09:12:52.656Z,15.60
2019-02-27T09:15:21.186Z,16.27
2019-02-27T09:17:49.867Z,15.00
2019-02-27T09:20:22.749Z,16.07
2019-02-27T09:22:51.172Z,24.70
2019-02-27T09:25:23.626Z,15.50
2019-02-27T09:27:49.633Z,15.13
2019-02-27T09:30:20.672Z,15.50
2019-02-27T09:32:49.003Z,13.63
2019-02-27T09:35:17.524Z,13.37
2019-02-27T09:37:48.366Z,20.83
2019-02-27T09:40:23.902Z,18.20
2019-02-27T09:42:53.047Z,16.40
2019-02-27T09:45:27.336Z,21.07
2019-02-27T09:47:59.277Z,16.83
2019-02-27T09:50:40.282Z,18.47
2019-02-27T09:53:08.794Z,17.00
2019-02-27T09:55:37.177Z,15.10
2019-02-27T09:58:10.379Z,18.23
2019-02-27T10:00:41.679Z,15.13
2019-02-27T10:03:10.271Z,13.13
2019-02-27T10:05:40.727Z,15.63
2019-02-27T10:08:09.455Z,15.20
2019-02-27T10:10:37.770Z,20.93
2019-02-27T10:13:06.243Z,18.03
2019-02-27T10:15:34.756Z,13.43
2019-02-27T10:18:03.262Z,16.07
2019-02-27T10:20:31.627Z,14.43
2019-02-27T10:22:59.962Z,15.17
2019-02-27T10:25:28.699Z,17.47
2019-02-27T10:27:57.106Z,12.87
2019-02-27T10:30:25.669Z,16.33
2019-02-27T10:32:54.104Z,19.00
2019-02-27T10:35:23.052Z,16.03
2019-02-27T10:37:54.371Z,15.33
2019-02-27T10:40:26.188Z,13.97
2019-02-27T10:42:54.810Z,12.20
2019-02-27T10:45:23.196Z,14.03
2019-02-27T10:47:51.523Z,16.60
2019-02-27T10:50:19.888Z,13.90
2019-02-27T10:52:50.008Z,13.80
2019-02-27T10:55:27.085Z,13.70
2019-02-27T10:57:55.702Z,14.43
2019-02-27T11:00:35.181Z,13.57
2019-02-27T11:03:03.808Z,12.50
2019-02-27T11:05:39.670Z,10.93
2019-02-27T11:08:08.048Z,14.07
2019-02-27T11:10:36.564Z,14.03
2019-02-27T11:13:06.734Z,15.40
2019-02-27T11:15:35.168Z,12.20
2019-02-27T11:18:05.503Z,12.43
2019-02-27T11:20:33.981Z,13.87
2019-02-27T11:23:06.417Z,14.10
2019-02-27T11:25:32.726Z,11.57
2019-02-27T11:28:01.167Z,9.87
2019-02-27T11:30:40.682Z,11.10
2019-02-27T11:33:09.406Z,11.10
2019-02-27T11:35:37.743Z,9.53
2019-02-27T11:38:06.220Z,10.90
2019-02-27T11:40:34.840Z,14.90
2019-02-27T11:43:06.710Z,12.17
2019-02-27T11:45:33.318Z,10.80
2019-02-27T11:48:01.654Z,13.00
2019-02-27T11:50:30.020Z,12.33
2019-02-27T11:53:01.764Z,14.67
2019-02-27T11:55:28.484Z,10.93
2019-02-27T11:57:56.813Z,14.53
2019-02-27T12:00:31.284Z,13.07
2019-02-27T12:02:59.812Z,10.90
2019-02-27T12:05:33.718Z,13.23
2019-02-27T12:07:58.958Z,9.43
2019-02-27T12:10:29.738Z,9.23
2019-02-27T12:13:00.807Z,7.70
2019-02-27T12:15:28.200Z,6.50
2019-02-27T12:17:59.696Z,8.07
2019-02-27T12:20:26.749Z,10.90
2019-02-27T12:22:55.219Z,8.90
2019-02-27T12:25:26.912Z,7.87
2019-02-27T12:27:56.897Z,7.13
2019-02-27T12:30:27.030Z,8.43
2019-02-27T12:32:56.608Z,8.87
2019-02-27T12:35:27.579Z,7.13
2019-02-27T12:37:56.036Z,5.80
2019-02-27T12:40:25.235Z,6.90
2019-02-27T12:42:53.833Z,7.53
2019-02-27T12:45:29.853Z,5.27
2019-02-27T12:47:58.645Z,4.00
2019-02-27T12:50:31.037Z,4.63
2019-02-27T12:52:58.524Z,4.70
2019-02-27T12:55:28.339Z,5.40
2019-02-27T12:57:56.635Z,5.07
2019-02-27T13:00:29.718Z,5.23
2019-02-27T13:02:59.175Z,6.00
2019-02-27T13:05:27.946Z,3.60
2019-02-27T13:07:56.384Z,4.13
2019-02-27T13:10:26.157Z,4.53
2019-02-27T13:12:54.516Z,5.10
2019-02-27T13:15:25.052Z,3.90
2019-02-27T13:17:57.587Z,6.30
2019-02-27T13:20:34.299Z,4.60
2019-02-27T13:23:05.048Z,6.30
2019-02-27T13:25:32.765Z,5.30
2019-02-27T13:28:01.067Z,8.37
2019-02-27T13:30:29.647Z,5.27
2019-02-27T13:33:00.606Z,6.73
2019-02-27T13:35:29.077Z,4.67
2019-02-27T13:37:57.645Z,4.40
2019-02-27T13:40:28.444Z,5.67
2019-02-27T13:42:56.949Z,4.90
2019-02-27T13:45:27.762Z,9.83
2019-02-27T13:47:56.117Z,4.70
2019-02-27T13:50:26.780Z,6.93
2019-02-27T13:52:58.578Z,6.53
2019-02-27T13:55:26.951Z,4.00
2019-02-27T13:57:58.798Z,6.80
2019-02-27T14:00:36.722Z,7.50
2019-02-27T14:03:05.193Z,5.93
2019-02-27T14:05:40.715Z,3.87
2019-02-27T14:08:09.031Z,4.73
2019-02-27T14:10:37.491Z,5.30
2019-02-27T14:13:08.609Z,11.03
2019-02-27T14:15:36.245Z,10.27
2019-02-27T14:18:04.621Z,9.13
2019-02-27T14:20:36.485Z,6.80
2019-02-27T14:23:04.965Z,5.13
2019-02-27T14:25:33.980Z,6.03
2019-02-27T14:28:02.464Z,6.20
2019-02-27T14:30:39.490Z,12.80
2019-02-27T14:33:07.939Z,8.43
2019-02-27T14:35:36.693Z,15.73
2019-02-27T14:38:05.351Z,10.40
2019-02-27T14:40:37.687Z,14.80
2019-02-27T14:43:04.015Z,12.87
2019-02-27T14:45:32.380Z,8.80
2019-02-27T14:48:00.708Z,12.30
2019-02-27T14:50:33.498Z,9.43
2019-02-27T14:52:59.951Z,10.80
2019-02-27T14:55:28.385Z,13.47
2019-02-27T14:57:56.879Z,11.07
2019-02-27T15:00:27.304Z,12.70
2019-02-27T15:02:56.520Z,12.53
2019-02-27T15:05:24.870Z,10.87
2019-02-27T15:07:54.653Z,14.53
2019-02-27T15:10:23.850Z,9.93
2019-02-27T15:12:55.179Z,11.87
2019-02-27T15:15:32.567Z,11.70
2019-02-27T15:18:00.976Z,13.60
2019-02-27T15:20:31.442Z,8.57
2019-02-27T15:22:59.911Z,14.90
2019-02-27T15:25:28.255Z,12.20
2019-02-27T15:27:58.670Z,12.20
2019-02-27T15:30:31.948Z,9.30
2019-02-27T15:33:03.704Z,7.80
2019-02-27T15:35:30.479Z,13.23
2019-02-27T15:37:58.939Z,10.00
2019-02-27T15:40:30.057Z,9.20
2019-02-27T15:42:59.037Z,11.50
2019-02-27T15:45:28.504Z,8.90
2019-02-27T15:47:56.943Z,11.20
2019-02-27T15:50:27.812Z,11.00
2019-02-27T15:52:56.112Z,8.03
2019-02-27T15:55:24.519Z,12.37
2019-02-27T15:57:54.152Z,9.77
2019-02-27T16:00:27.958Z,8.47
2019-02-27T16:02:56.422Z,9.93
2019-02-27T16:05:29.869Z,16.50
2019-02-27T16:07:55.071Z,14.20
2019-02-27T16:10:27.767Z,16.60
2019-02-27T16:12:59.699Z,9.00
2019-02-27T16:15:26.453Z,10.00
2019-02-27T16:17:54.792Z,9.77
2019-02-27T16:20:27.218Z,12.30
2019-02-27T16:22:55.545Z,12.77
2019-02-27T16:25:27.908Z,11.57
2019-02-27T16:27:56.316Z,13.37
2019-02-27T16:30:32.983Z,16.73
2019-02-27T16:33:01.482Z,23.23
2019-02-27T16:35:29.929Z,14.00
2019-02-27T16:37:58.492Z,15.20
2019-02-27T16:40:27.930Z,17.43
2019-02-27T16:42:56.654Z,18.70
2019-02-27T16:45:31.915Z,14.90
2019-02-27T16:47:58.416Z,17.80
2019-02-27T16:50:28.236Z,25.43
2019-02-27T16:52:56.800Z,21.67
2019-02-27T16:55:26.807Z,14.00
2019-02-27T16:57:57.649Z,20.63
2019-02-27T17:00:31.369Z,21.20
2019-02-27T17:03:00.104Z,21.33
2019-02-27T17:05:28.502Z,23.63
2019-02-27T17:08:00.410Z,26.57
2019-02-27T17:10:35.663Z,21.57
2019-02-27T17:13:04.149Z,20.60
2019-02-27T17:15:35.762Z,19.90
2019-02-27T17:18:02.521Z,25.47
2019-02-27T17:20:31.154Z,33.57
2019-02-27T17:22:59.585Z,30.50
2019-02-27T17:25:30.069Z,33.23
2019-02-27T17:27:58.162Z,34.33
2019-02-27T17:30:37.685Z,34.60
2019-02-27T17:33:05.411Z,29.37
2019-02-27T17:35:33.859Z,41.03
2019-02-27T17:38:03.173Z,39.63
2019-02-27T17:40:36.224Z,50.43
2019-02-27T17:43:01.892Z,50.90
2019-02-27T17:45:30.960Z,42.90
2019-02-27T17:47:59.503Z,37.50
2019-02-27T17:50:31.268Z,39.53
2019-02-27T17:52:58.070Z,34.83
2019-02-27T17:55:26.481Z,45.23
2019-02-27T17:57:57.867Z,46.67
2019-02-27T18:00:28.585Z,47.13
2019-02-27T18:02:56.963Z,65.13
2019-02-27T18:05:26.197Z,64.80
2019-02-27T18:07:56.414Z,51.73
2019-02-27T18:10:24.950Z,48.10
2019-02-27T18:12:53.368Z,44.50
2019-02-27T18:15:22.883Z,37.73
2019-02-27T18:17:51.699Z,28.43
2019-02-27T18:20:24.289Z,29.50
2019-02-27T18:22:50.567Z,36.70
2019-02-27T18:25:19.070Z,36.27
2019-02-27T18:27:48.000Z,34.33
2019-02-27T18:30:21.105Z,31.10
2019-02-27T18:32:49.858Z,30.03
2019-02-27T18:35:19.446Z,34.30
2019-02-27T18:37:53.101Z,34.37
2019-02-27T18:40:20.086Z,34.17
2019-02-27T18:42:48.589Z,32.83
2019-02-27T18:45:22.394Z,35.10
2019-02-27T18:47:50.797Z,29.97
2019-02-27T18:50:19.278Z,37.37
2019-02-27T18:52:47.708Z,32.53
2019-02-27T18:55:16.366Z,32.70
2019-02-27T18:57:47.167Z,34.33
2019-02-27T19:00:23.842Z,33.37
2019-02-27T19:02:54.582Z,34.17
2019-02-27T19:05:23.039Z,30.03
2019-02-27T19:07:54.841Z,35.77
2019-02-27T19:10:21.940Z,34.47
2019-02-27T19:12:50.418Z,32.07
2019-02-27T19:15:22.070Z,33.07
2019-02-27T19:17:50.488Z,27.63
2019-02-27T19:20:25.147Z,36.27
2019-02-27T19:22:53.910Z,29.67
2019-02-27T19:25:22.354Z,30.73
2019-02-27T19:27:50.982Z,31.73
2019-02-27T19:30:20.186Z,32.30
2019-02-27T19:32:49.156Z,31.80
2019-02-27T19:35:21.284Z,34.00
2019-02-27T19:37:49.501Z,34.63
2019-02-27T19:40:20.713Z,38.50
2019-02-27T19:43:03.153Z,34.53
2019-02-27T19:45:31.614Z,30.63
2019-02-27T19:48:01.011Z,40.07
2019-02-27T19:50:29.513Z,30.93
2019-02-27T19:53:03.271Z,35.87
2019-02-27T19:55:28.175Z,28.00
2019-02-27T19:57:56.569Z,33.33
2019-02-27T20:00:33.722Z,29.07
2019-02-27T20:03:01.085Z,24.87
2019-02-27T20:05:30.213Z,38.37
2019-02-27T20:07:58.598Z,20.30
2019-02-27T20:10:30.958Z,24.10
2019-02-27T20:12:57.984Z,23.47
2019-02-27T20:15:27.109Z,29.40
2019-02-27T20:17:55.417Z,20.43
2019-02-27T20:20:24.114Z,25.13
2019-02-27T20:22:53.487Z,27.93
2019-02-27T20:25:26.278Z,21.43
2019-02-27T20:27:57.976Z,36.20
2019-02-27T20:30:25.355Z,25.13
2019-02-27T20:32:54.120Z,30.10
2019-02-27T20:35:22.447Z,28.97
2019-02-27T20:37:50.980Z,26.67
2019-02-27T20:40:20.587Z,25.30
2019-02-27T20:42:50.741Z,27.87
2019-02-27T20:45:23.070Z,25.90
2019-02-27T20:47:57.701Z,24.63
2019-02-27T20:50:44.650Z,30.33
2019-02-27T20:53:14.723Z,30.13
2019-02-27T20:55:43.226Z,31.53
2019-02-27T20:58:16.161Z,34.50
2019-02-27T21:00:42.278Z,29.33
2019-02-27T21:03:10.744Z,28.40
2019-02-27T21:05:41.091Z,28.10
